Cave Spring, Kentucky
Current Conditions -  °F | °C
As of 1:53 PM on Friday 24 Oct 2014 (Local Time) from KBWG Reporting Station
Clear Clear  
Wind Chill: 66°   Ceiling: Unl
Heat Index: 66°   Visibility: 10mi
Dew Point: 41°   Wind: 3mph
Humidity: 40%   Direction: 300°WNW
Pressure: 30.09"   Gusts: NA
Location:  36.8547°N, 86.8859°W
Report Text: KBWG 241853Z AUTO 30003KT 10SM CLR 19/05 A3009 RMK AO2 SLP188 T01890050
Loading
Personal Weather Stations






























Interactive Weather Map
Tropical Storm Tracking
New forecast layout! Learn more

10-Day Weather Forecast

Advertisements
Track Severe Weather on mobile